createdAt,value
2023-03-06T00:01:10.055Z,70.71
2023-03-06T00:03:39.672Z,70.68
2023-03-06T00:06:08.620Z,70.92
2023-03-06T00:08:36.940Z,71.21
2023-03-06T00:11:05.608Z,71.09
2023-03-06T00:13:35.019Z,71.26
2023-03-06T00:16:03.376Z,70.96
2023-03-06T00:18:31.938Z,70.96
2023-03-06T00:21:01.524Z,71.19
2023-03-06T00:23:29.946Z,71.42
2023-03-06T00:25:58.780Z,71.27
2023-03-06T00:28:30.956Z,71.44
2023-03-06T00:30:59.777Z,71.64
2023-03-06T00:33:28.252Z,71.53
2023-03-06T00:35:57.579Z,71.55
2023-03-06T00:38:28.546Z,71.64
2023-03-06T00:40:58.136Z,71.88
2023-03-06T00:43:26.615Z,72.06
2023-03-06T00:45:54.865Z,72.13
2023-03-06T00:48:23.606Z,72.03
2023-03-06T00:50:53.540Z,72.06
2023-03-06T00:53:22.061Z,72.35
2023-03-06T00:55:53.061Z,72.05
2023-03-06T00:58:21.371Z,72.21
2023-03-06T01:00:50.623Z,72.22
2023-03-06T01:03:19.311Z,72.30
2023-03-06T01:05:47.580Z,72.58
2023-03-06T01:08:16.151Z,72.68
2023-03-06T01:10:44.718Z,72.64
2023-03-06T01:13:14.355Z,72.70
2023-03-06T01:15:43.086Z,72.75
2023-03-06T01:18:11.620Z,72.77
2023-03-06T01:20:40.162Z,72.74
2023-03-06T01:23:09.597Z,72.93
2023-03-06T01:25:37.842Z,73.02
2023-03-06T01:28:06.406Z,72.72
2023-03-06T01:30:35.978Z,72.98
2023-03-06T01:33:04.830Z,72.80
2023-03-06T01:35:33.426Z,72.84
2023-03-06T01:38:01.963Z,73.04
2023-03-06T01:40:32.860Z,72.92
2023-03-06T01:43:09.542Z,72.73
2023-03-06T01:46:22.830Z,72.87
2023-03-06T01:48:56.603Z,72.77
2023-03-06T01:51:30.571Z,73.14
2023-03-06T01:54:02.099Z,72.95
2023-03-06T01:56:30.856Z,73.20
2023-03-06T01:59:00.794Z,73.24
2023-03-06T02:01:31.049Z,72.97
2023-03-06T02:04:00.535Z,72.92
2023-03-06T02:06:30.502Z,73.01
2023-03-06T02:08:59.066Z,73.09
2023-03-06T02:11:27.804Z,73.08
2023-03-06T02:13:56.582Z,72.78
2023-03-06T02:16:28.873Z,73.05
2023-03-06T02:19:01.365Z,73.02
2023-03-06T02:21:35.400Z,72.84
2023-03-06T02:24:19.784Z,73.12
2023-03-06T02:26:50.414Z,72.85
2023-03-06T02:29:25.425Z,73.09
2023-03-06T02:31:54.033Z,73.19
2023-03-06T02:34:56.163Z,73.10
2023-03-06T02:37:26.224Z,72.87
2023-03-06T02:40:08.084Z,73.12
2023-03-06T02:42:37.798Z,73.15
2023-03-06T02:45:13.188Z,73.13
2023-03-06T02:47:42.603Z,72.85
2023-03-06T02:50:12.597Z,73.02
2023-03-06T02:52:41.219Z,73.07
2023-03-06T02:55:10.447Z,72.88
2023-03-06T02:57:40.073Z,73.29
2023-03-06T03:00:11.159Z,73.03
2023-03-06T03:02:39.736Z,73.23
2023-03-06T03:05:09.172Z,73.06
2023-03-06T03:07:42.596Z,73.27
2023-03-06T03:10:12.595Z,73.18
2023-03-06T03:12:42.976Z,72.94
2023-03-06T03:15:12.450Z,73.02
2023-03-06T03:17:42.004Z,73.17
2023-03-06T03:20:15.246Z,73.15
2023-03-06T03:22:44.094Z,73.44
2023-03-06T03:25:13.208Z,73.24
2023-03-06T03:27:42.835Z,73.36
2023-03-06T03:30:13.164Z,73.34
2023-03-06T03:32:41.769Z,73.25
2023-03-06T03:35:12.829Z,73.65
2023-03-06T03:37:42.399Z,73.55
2023-03-06T03:40:12.670Z,73.59
2023-03-06T03:42:42.587Z,73.49
2023-03-06T03:45:12.942Z,73.84
2023-03-06T03:47:41.772Z,73.54
2023-03-06T03:50:12.070Z,73.96
2023-03-06T03:52:40.944Z,73.65
2023-03-06T03:55:10.462Z,74.02
2023-03-06T03:57:43.146Z,73.82
2023-03-06T04:00:16.400Z,73.84
2023-03-06T04:03:04.881Z,73.97
2023-03-06T04:05:39.990Z,73.93
2023-03-06T04:08:10.512Z,73.61
2023-03-06T04:10:42.787Z,73.88
2023-03-06T04:13:14.441Z,73.73
2023-03-06T04:15:45.509Z,73.59
2023-03-06T04:18:16.215Z,73.73
2023-03-06T04:20:46.530Z,73.91
2023-03-06T04:23:16.204Z,73.91
2023-03-06T04:25:44.865Z,73.53
2023-03-06T04:28:15.663Z,73.88
2023-03-06T04:30:44.526Z,73.47
2023-03-06T04:33:13.526Z,73.77
2023-03-06T04:35:43.756Z,73.82
2023-03-06T04:38:18.597Z,74.12
2023-03-06T04:40:49.564Z,73.88
2023-03-06T04:43:19.219Z,73.84
2023-03-06T04:45:47.860Z,74.11
2023-03-06T04:48:18.041Z,74.04
2023-03-06T04:50:46.904Z,73.83
2023-03-06T04:53:16.842Z,73.83
2023-03-06T04:55:45.114Z,74.18
2023-03-06T04:58:14.927Z,74.06
2023-03-06T05:00:44.689Z,74.08
2023-03-06T05:03:14.789Z,73.93
2023-03-06T05:05:43.537Z,74.12
2023-03-06T05:08:15.140Z,74.11
2023-03-06T05:10:44.150Z,74.25
2023-03-06T05:13:13.068Z,74.16
2023-03-06T05:15:41.986Z,74.27
2023-03-06T05:18:11.565Z,73.92
2023-03-06T05:20:40.125Z,73.92
2023-03-06T05:23:08.655Z,74.19
2023-03-06T05:25:38.941Z,74.17
2023-03-06T05:28:07.808Z,74.37
2023-03-06T05:30:36.733Z,74.37
2023-03-06T05:33:05.559Z,74.09
2023-03-06T05:35:35.465Z,74.34
2023-03-06T05:38:04.099Z,74.16
2023-03-06T05:40:32.686Z,74.13
2023-03-06T05:43:01.253Z,74.44
2023-03-06T05:45:29.943Z,74.09
2023-03-06T05:47:58.485Z,74.25
2023-03-06T05:50:26.984Z,74.53
2023-03-06T05:52:56.568Z,74.45
2023-03-06T05:55:25.134Z,74.70
2023-03-06T05:57:54.589Z,74.41
2023-03-06T06:00:24.650Z,74.65
2023-03-06T06:02:53.175Z,74.67
2023-03-06T06:05:21.722Z,74.75
2023-03-06T06:07:50.001Z,74.61
2023-03-06T06:10:19.927Z,74.84
2023-03-06T06:12:48.149Z,74.86
2023-03-06T06:15:16.733Z,75.14
2023-03-06T06:17:45.222Z,75.25
2023-03-06T06:20:14.792Z,75.12
2023-03-06T06:22:43.301Z,74.94
2023-03-06T06:25:11.557Z,74.88
2023-03-06T06:27:41.166Z,75.08
2023-03-06T06:30:12.617Z,74.99
2023-03-06T06:32:41.324Z,75.13
2023-03-06T06:35:10.356Z,75.30
2023-03-06T06:37:38.948Z,75.54
2023-03-06T06:40:08.763Z,75.31
2023-03-06T06:42:40.165Z,75.22
2023-03-06T06:45:12.681Z,75.33
2023-03-06T06:47:42.074Z,75.39
2023-03-06T06:50:14.032Z,75.51
2023-03-06T06:52:42.614Z,75.65
2023-03-06T06:55:12.051Z,75.44
2023-03-06T06:57:42.001Z,75.55
2023-03-06T07:00:15.778Z,75.66
2023-03-06T07:02:44.593Z,75.61
2023-03-06T07:05:13.318Z,75.84
2023-03-06T07:07:41.618Z,76.08
2023-03-06T07:10:15.304Z,76.12
2023-03-06T07:12:43.990Z,75.89
2023-03-06T07:15:16.598Z,75.91
2023-03-06T07:17:45.253Z,75.41
2023-03-06T07:20:13.819Z,75.89
2023-03-06T07:22:50.997Z,75.80
2023-03-06T07:25:22.614Z,75.62
2023-03-06T07:27:54.447Z,75.83
2023-03-06T07:30:25.568Z,75.69
2023-03-06T07:32:55.307Z,75.78
2023-03-06T07:35:24.454Z,75.81
2023-03-06T07:37:53.049Z,75.87
2023-03-06T07:40:26.150Z,75.81
2023-03-06T07:43:06.087Z,75.74
2023-03-06T07:45:46.998Z,76.07
2023-03-06T07:48:15.928Z,75.52
2023-03-06T07:50:44.696Z,75.84
2023-03-06T07:53:13.389Z,75.80
2023-03-06T07:55:42.401Z,75.70
2023-03-06T07:58:11.007Z,75.71
2023-03-06T08:00:39.547Z,75.96
2023-03-06T08:03:11.190Z,75.69
2023-03-06T08:05:39.851Z,75.54
2023-03-06T08:08:09.141Z,75.88
2023-03-06T08:10:38.012Z,75.78
2023-03-06T08:13:06.600Z,75.68
2023-03-06T08:15:35.150Z,75.91
2023-03-06T08:18:03.712Z,75.66
2023-03-06T08:20:33.312Z,76.04
2023-03-06T08:23:01.817Z,75.85
2023-03-06T08:25:30.473Z,75.73
2023-03-06T08:27:59.037Z,75.75
2023-03-06T08:30:27.556Z,75.78
2023-03-06T08:32:55.994Z,75.67
2023-03-06T08:35:24.886Z,75.95
2023-03-06T08:37:54.836Z,75.56
2023-03-06T08:40:23.412Z,75.61
2023-03-06T08:42:52.162Z,75.58
2023-03-06T08:45:20.814Z,75.46
2023-03-06T08:47:49.329Z,75.78
2023-03-06T08:50:18.942Z,75.40
2023-03-06T08:52:47.289Z,75.72
2023-03-06T08:55:17.170Z,75.37
2023-03-06T08:57:46.451Z,75.56
2023-03-06T09:00:16.279Z,75.20
2023-03-06T09:02:44.832Z,75.17
2023-03-06T09:05:13.351Z,75.52
2023-03-06T09:07:41.870Z,75.23
2023-03-06T09:10:17.894Z,75.12
2023-03-06T09:12:51.343Z,74.88
2023-03-06T09:15:21.845Z,74.87
2023-03-06T09:17:50.828Z,75.14
2023-03-06T09:20:19.783Z,74.65
2023-03-06T09:22:48.536Z,74.66
2023-03-06T09:25:20.477Z,74.83
2023-03-06T09:28:01.937Z,74.67
2023-03-06T09:30:37.382Z,74.59
2023-03-06T09:33:06.297Z,74.56
2023-03-06T09:35:34.895Z,74.38
2023-03-06T09:38:03.117Z,74.18
2023-03-06T09:40:52.523Z,74.21
2023-03-06T09:43:26.615Z,74.01
2023-03-06T09:45:55.437Z,73.75
2023-03-06T09:48:37.587Z,73.66
2023-03-06T09:51:13.542Z,73.30
2023-03-06T09:53:59.995Z,73.22
2023-03-06T09:56:33.794Z,72.99
2023-03-06T09:59:18.281Z,73.00
2023-03-06T10:01:56.034Z,72.73
2023-03-06T10:04:37.217Z,72.71
2023-03-06T10:07:15.638Z,72.48
2023-03-06T10:09:51.730Z,72.11
2023-03-06T10:12:26.066Z,71.87
2023-03-06T10:15:13.059Z,71.99
2023-03-06T10:17:43.622Z,71.74
2023-03-06T10:20:20.705Z,71.94
2023-03-06T10:23:11.249Z,71.67
2023-03-06T10:25:49.917Z,71.92
2023-03-06T10:28:25.523Z,71.56
2023-03-06T10:31:01.252Z,71.61
2023-03-06T10:33:43.621Z,71.55
2023-03-06T10:36:16.165Z,71.30
2023-03-06T10:38:46.050Z,71.20
2023-03-06T10:41:27.448Z,71.00
2023-03-06T10:44:23.633Z,70.69
2023-03-06T10:46:54.775Z,70.73
2023-03-06T10:49:31.954Z,70.36
2023-03-06T10:52:04.242Z,70.00
2023-03-06T10:54:34.931Z,69.87
2023-03-06T10:57:26.218Z,69.82
2023-03-06T10:59:58.627Z,69.76
2023-03-06T11:02:31.339Z,69.73
2023-03-06T11:05:02.190Z,69.76
2023-03-06T11:07:32.747Z,69.37
2023-03-06T11:10:16.778Z,69.14
2023-03-06T11:12:56.720Z,69.17
2023-03-06T11:15:27.583Z,69.29
2023-03-06T11:18:00.307Z,69.18
2023-03-06T11:20:50.158Z,69.29
2023-03-06T11:23:22.812Z,68.97
2023-03-06T11:25:57.202Z,68.99
2023-03-06T11:28:29.797Z,68.74
2023-03-06T11:31:04.854Z,68.98
2023-03-06T11:33:41.578Z,68.88
2023-03-06T11:36:16.725Z,68.88
2023-03-06T11:38:50.905Z,68.91
2023-03-06T11:41:32.420Z,68.71
2023-03-06T11:44:12.134Z,68.60
2023-03-06T11:46:48.641Z,68.20
2023-03-06T11:49:25.328Z,67.99
2023-03-06T11:51:58.668Z,68.03
2023-03-06T11:54:27.619Z,68.08
2023-03-06T11:57:00.642Z,68.03
2023-03-06T12:00:02.275Z,68.02
2023-03-06T12:03:00.233Z,67.97
2023-03-06T12:05:38.133Z,67.88
2023-03-06T12:08:45.009Z,68.04
2023-03-06T12:11:21.344Z,67.70
2023-03-06T12:14:06.298Z,67.41
2023-03-06T12:17:02.597Z,67.47
2023-03-06T12:19:49.836Z,67.13
2023-03-06T12:22:53.295Z,66.79
2023-03-06T12:25:36.370Z,66.25
2023-03-06T12:28:38.410Z,66.29
2023-03-06T12:31:28.865Z,65.76
2023-03-06T12:34:23.562Z,65.37
2023-03-06T12:37:09.613Z,65.24
2023-03-06T12:39:56.864Z,64.84
2023-03-06T12:42:42.314Z,64.72
2023-03-06T12:45:27.654Z,64.30
2023-03-06T12:47:58.109Z,64.13
2023-03-06T12:50:28.749Z,64.25
2023-03-06T12:53:03.035Z,64.08
2023-03-06T12:55:41.412Z,64.10
2023-03-06T12:58:35.686Z,64.15
2023-03-06T13:01:10.481Z,63.89
2023-03-06T13:03:52.700Z,64.07
2023-03-06T13:06:54.140Z,63.93
2023-03-06T13:09:34.581Z,63.56
2023-03-06T13:12:26.743Z,63.32
2023-03-06T13:15:00.691Z,62.95
2023-03-06T13:17:36.824Z,62.88
2023-03-06T13:20:40.076Z,62.46
2023-03-06T13:23:51.599Z,62.45
2023-03-06T13:26:55.668Z,62.41
2023-03-06T13:30:21.557Z,62.01
2023-03-06T13:32:52.771Z,61.38
2023-03-06T13:35:53.548Z,61.46
2023-03-06T13:38:38.635Z,61.51
2023-03-06T13:41:35.655Z,61.60
2023-03-06T13:44:47.305Z,61.19
2023-03-06T13:48:33.837Z,60.73
2023-03-06T13:50:47.557Z,60.67
2023-03-06T13:54:17.297Z,60.74
2023-03-06T13:57:17.613Z,60.26
2023-03-06T14:00:44.476Z,60.23
2023-03-06T14:04:00.855Z,60.07
2023-03-06T14:06:53.915Z,60.19
2023-03-06T14:09:30.329Z,60.25
2023-03-06T14:12:03.435Z,60.24
2023-03-06T14:14:41.193Z,60.19
2023-03-06T14:17:26.487Z,59.82
2023-03-06T14:19:55.347Z,59.92
2023-03-06T14:22:25.718Z,60.10
2023-03-06T14:25:00.596Z,60.35
2023-03-06T14:27:49.404Z,60.65
2023-03-06T14:30:20.936Z,60.80
2023-03-06T14:32:54.634Z,60.99
2023-03-06T14:35:28.177Z,60.91
2023-03-06T14:38:00.182Z,61.13
2023-03-06T14:40:34.372Z,60.90
2023-03-06T14:43:18.748Z,61.32
2023-03-06T14:45:52.504Z,61.16
2023-03-06T14:48:22.259Z,61.35
2023-03-06T14:50:53.782Z,61.38
2023-03-06T14:53:27.780Z,61.49
2023-03-06T14:56:00.084Z,61.35
2023-03-06T14:58:34.465Z,61.44
2023-03-06T15:01:06.782Z,61.52
2023-03-06T15:03:45.488Z,61.41
2023-03-06T15:06:21.061Z,61.57
2023-03-06T15:08:56.893Z,61.84
2023-03-06T15:11:25.542Z,61.84
2023-03-06T15:14:03.836Z,62.24
2023-03-06T15:16:32.705Z,62.03
2023-03-06T15:19:03.677Z,62.41
2023-03-06T15:21:36.626Z,62.39
2023-03-06T15:24:33.004Z,62.87
2023-03-06T15:27:06.000Z,62.82
2023-03-06T15:29:38.760Z,63.33
2023-03-06T15:32:42.395Z,63.44
2023-03-06T15:35:32.700Z,63.38
2023-03-06T15:38:01.849Z,63.24
2023-03-06T15:40:32.906Z,63.10
2023-03-06T15:43:01.974Z,63.36
2023-03-06T15:45:31.887Z,63.37
2023-03-06T15:48:00.359Z,63.42
2023-03-06T15:50:30.475Z,63.53
2023-03-06T15:52:58.945Z,63.96
2023-03-06T15:55:27.801Z,64.16
2023-03-06T15:57:59.615Z,64.40
2023-03-06T16:00:30.765Z,64.54
2023-03-06T16:02:59.808Z,64.61
2023-03-06T16:05:30.605Z,64.70
2023-03-06T16:07:59.109Z,64.79
2023-03-06T16:10:31.760Z,64.46
2023-03-06T16:13:06.187Z,64.64
2023-03-06T16:15:40.792Z,64.69
2023-03-06T16:18:11.827Z,64.95
2023-03-06T16:20:42.867Z,65.21
2023-03-06T16:23:11.843Z,65.29
2023-03-06T16:25:43.078Z,65.56
2023-03-06T16:28:14.641Z,65.46
2023-03-06T16:30:44.980Z,65.51
2023-03-06T16:33:14.350Z,65.78
2023-03-06T16:35:46.463Z,66.16
2023-03-06T16:38:16.208Z,66.32
2023-03-06T16:40:44.927Z,66.34
2023-03-06T16:43:16.004Z,66.35
2023-03-06T16:45:44.792Z,66.70
2023-03-06T16:48:17.683Z,66.55
2023-03-06T16:50:47.534Z,66.97
2023-03-06T16:53:16.372Z,66.94
2023-03-06T16:55:44.590Z,67.08
2023-03-06T16:58:13.213Z,67.59
2023-03-06T17:00:42.167Z,67.79
2023-03-06T17:03:10.713Z,67.87
2023-03-06T17:05:39.465Z,68.52
2023-03-06T17:08:09.007Z,68.61
2023-03-06T17:10:39.876Z,68.97
2023-03-06T17:13:08.498Z,68.78
2023-03-06T17:15:37.306Z,69.35
2023-03-06T17:18:06.171Z,69.74
2023-03-06T17:20:34.751Z,69.62
2023-03-06T17:23:03.249Z,69.64
2023-03-06T17:25:34.872Z,69.93
2023-03-06T17:28:03.425Z,69.67
2023-03-06T17:30:31.931Z,70.26
2023-03-06T17:33:00.720Z,70.34
2023-03-06T17:35:29.047Z,70.46
2023-03-06T17:37:58.506Z,70.16
2023-03-06T17:40:26.731Z,70.51
2023-03-06T17:42:56.298Z,70.35
2023-03-06T17:45:24.790Z,70.59
2023-03-06T17:47:55.711Z,70.55
2023-03-06T17:50:24.238Z,70.50
2023-03-06T17:52:52.721Z,70.66
2023-03-06T17:55:21.344Z,70.73
2023-03-06T17:57:52.224Z,70.74
2023-03-06T18:00:23.630Z,70.73
2023-03-06T18:02:52.215Z,70.75
2023-03-06T18:05:21.737Z,70.37
2023-03-06T18:07:50.305Z,70.43
2023-03-06T18:10:19.002Z,70.52
2023-03-06T18:12:47.263Z,70.39
2023-03-06T18:15:15.493Z,70.25
2023-03-06T18:17:45.062Z,70.55
2023-03-06T18:20:13.889Z,70.60
2023-03-06T18:22:42.456Z,70.30
2023-03-06T18:25:11.322Z,70.69
2023-03-06T18:27:39.811Z,70.68
2023-03-06T18:30:09.689Z,70.63
2023-03-06T18:32:38.268Z,70.79
2023-03-06T18:35:09.659Z,71.02
2023-03-06T18:37:38.435Z,70.71
2023-03-06T18:40:08.488Z,70.73
2023-03-06T18:42:37.132Z,71.17
2023-03-06T18:45:06.220Z,71.12
2023-03-06T18:47:34.755Z,71.04
2023-03-06T18:50:03.534Z,71.31
2023-03-06T18:52:34.196Z,71.29
2023-03-06T18:55:02.796Z,71.12
2023-03-06T18:57:31.001Z,71.46
2023-03-06T18:59:59.577Z,71.19
2023-03-06T19:02:28.177Z,71.30
2023-03-06T19:04:57.986Z,71.53
2023-03-06T19:07:26.468Z,71.33
2023-03-06T19:09:56.052Z,71.52
2023-03-06T19:12:24.597Z,71.33
2023-03-06T19:14:53.088Z,71.94
2023-03-06T19:17:23.432Z,71.76
2023-03-06T19:19:52.851Z,71.87
2023-03-06T19:22:22.049Z,72.16
2023-03-06T19:24:50.743Z,72.35
2023-03-06T19:27:20.431Z,72.50
2023-03-06T19:29:48.944Z,72.21
2023-03-06T19:32:17.546Z,72.31
2023-03-06T19:34:49.076Z,72.35
2023-03-06T19:37:17.283Z,72.36
2023-03-06T19:39:45.910Z,73.14
2023-03-06T19:42:14.485Z,72.68
2023-03-06T19:44:44.254Z,72.96
2023-03-06T19:47:12.764Z,72.87
2023-03-06T19:49:41.453Z,72.83
2023-03-06T19:52:10.024Z,73.22
2023-03-06T19:54:38.704Z,72.85
2023-03-06T19:57:07.308Z,73.22
2023-03-06T19:59:35.789Z,73.20
2023-03-06T20:02:05.462Z,73.11
2023-03-06T20:04:34.456Z,72.94
2023-03-06T20:07:04.735Z,73.05
2023-03-06T20:09:33.242Z,73.10
2023-03-06T20:12:01.794Z,73.07
2023-03-06T20:14:30.799Z,73.10
2023-03-06T20:16:59.067Z,73.30
2023-03-06T20:19:28.857Z,73.46
2023-03-06T20:21:57.379Z,73.34
2023-03-06T20:24:25.990Z,73.38
2023-03-06T20:26:57.471Z,73.67
2023-03-06T20:29:28.374Z,73.51
2023-03-06T20:31:58.264Z,73.92
2023-03-06T20:34:28.374Z,73.88
2023-03-06T20:36:57.861Z,74.02
2023-03-06T20:39:26.455Z,74.03
2023-03-06T20:41:58.171Z,74.33
2023-03-06T20:44:29.769Z,74.22
2023-03-06T20:46:58.294Z,73.96
2023-03-06T20:49:28.404Z,74.60
2023-03-06T20:51:57.038Z,74.39
2023-03-06T20:54:25.529Z,74.63
2023-03-06T20:56:54.035Z,74.33
2023-03-06T20:59:23.685Z,74.69
2023-03-06T21:01:52.256Z,75.05
2023-03-06T21:04:20.765Z,74.79
2023-03-06T21:06:53.162Z,75.10
2023-03-06T21:09:21.766Z,74.78
2023-03-06T21:11:50.719Z,75.11
2023-03-06T21:14:19.285Z,75.50
2023-03-06T21:16:47.819Z,75.67
2023-03-06T21:19:16.757Z,75.98
2023-03-06T21:21:45.278Z,75.74
2023-03-06T21:24:14.854Z,76.08
2023-03-06T21:26:43.386Z,76.27
2023-03-06T21:29:11.968Z,76.60
2023-03-06T21:31:40.940Z,76.46
2023-03-06T21:34:11.366Z,76.81
2023-03-06T21:36:39.580Z,76.75
2023-03-06T21:39:08.382Z,76.90
2023-03-06T21:41:38.179Z,77.03
2023-03-06T21:44:08.018Z,76.94
2023-03-06T21:46:36.718Z,76.65
2023-03-06T21:49:06.330Z,77.15
2023-03-06T21:51:34.951Z,76.90
2023-03-06T21:54:04.125Z,76.78
2023-03-06T21:56:33.466Z,76.77
2023-03-06T21:59:03.158Z,76.86
2023-03-06T22:01:31.682Z,77.06
2023-03-06T22:04:00.809Z,76.83
2023-03-06T22:06:31.238Z,77.12
2023-03-06T22:09:00.966Z,76.97
2023-03-06T22:11:31.217Z,76.87
2023-03-06T22:13:59.617Z,76.85
2023-03-06T22:16:29.871Z,76.76
2023-03-06T22:18:58.751Z,76.53
2023-03-06T22:21:27.256Z,76.65
2023-03-06T22:23:58.388Z,76.58
2023-03-06T22:26:28.480Z,76.32
2023-03-06T22:28:57.254Z,76.17
2023-03-06T22:31:28.399Z,76.08
2023-03-06T22:34:00.760Z,76.20
2023-03-06T22:36:31.344Z,76.16
2023-03-06T22:39:02.445Z,76.04
2023-03-06T22:41:31.614Z,76.12
2023-03-06T22:44:01.419Z,75.77
2023-03-06T22:46:30.395Z,75.92
2023-03-06T22:49:01.030Z,75.53
2023-03-06T22:51:30.408Z,76.20
2023-03-06T22:53:59.089Z,75.90
2023-03-06T22:56:27.365Z,75.79
2023-03-06T22:58:57.496Z,75.91
2023-03-06T23:01:28.043Z,75.75
2023-03-06T23:04:00.080Z,75.56
2023-03-06T23:06:31.332Z,75.58
2023-03-06T23:09:03.717Z,75.50
2023-03-06T23:11:32.420Z,75.51
2023-03-06T23:14:20.712Z,75.65
2023-03-06T23:17:08.514Z,75.72
2023-03-06T23:19:56.557Z,75.38
2023-03-06T23:22:44.237Z,75.32
2023-03-06T23:25:31.218Z,75.43
2023-03-06T23:27:59.781Z,75.52
2023-03-06T23:30:28.386Z,75.32
2023-03-06T23:32:56.998Z,75.39
2023-03-06T23:35:26.686Z,75.24
2023-03-06T23:37:55.206Z,75.36
2023-03-06T23:40:24.022Z,75.50
2023-03-06T23:42:52.682Z,75.31
2023-03-06T23:45:21.816Z,75.44
2023-03-06T23:47:50.346Z,75.16
2023-03-06T23:50:19.141Z,74.98
2023-03-06T23:52:48.810Z,74.84
2023-03-06T23:55:17.559Z,74.77
2023-03-06T23:57:46.306Z,74.91
